createdAt,value
2017-02-26T00:05:13.906Z,1009.042
2017-02-26T00:08:16.923Z,1008.979
2017-02-26T00:11:21.168Z,1008.914
2017-02-26T00:14:25.436Z,1008.921
2017-02-26T00:17:29.303Z,1008.870
2017-02-26T00:23:38.291Z,1008.919
2017-02-26T00:26:36.190Z,1008.915
2017-02-26T00:29:47.022Z,1008.863
2017-02-26T00:32:51.001Z,1008.807
2017-02-26T00:35:44.628Z,1008.728
2017-02-26T00:41:55.842Z,1008.705
2017-02-26T00:45:07.011Z,1008.704
2017-02-26T00:48:11.594Z,1008.640
2017-02-26T00:51:15.414Z,1008.600
2017-02-26T00:54:20.744Z,1008.527
2017-02-26T00:57:25.171Z,1008.553
2017-02-26T01:00:30.412Z,1008.550
2017-02-26T01:03:35.408Z,1008.552
2017-02-26T01:06:42.369Z,1008.532
2017-02-26T01:09:43.631Z,1008.468
2017-02-26T01:12:48.432Z,1008.469
2017-02-26T01:18:58.188Z,1008.422
2017-02-26T01:22:04.922Z,1008.458
2017-02-26T01:28:13.718Z,1008.460
2017-02-26T01:31:18.948Z,1008.412
2017-02-26T01:34:25.231Z,1008.490
2017-02-26T01:37:27.425Z,1008.410
2017-02-26T01:43:38.269Z,1008.340
2017-02-26T01:46:42.800Z,1008.424
2017-02-26T01:49:48.249Z,1008.392
2017-02-26T01:52:53.377Z,1008.350
2017-02-26T01:55:58.440Z,1008.380
2017-02-26T01:59:08.821Z,1008.389
2017-02-26T02:02:12.649Z,1008.327
2017-02-26T02:08:20.243Z,1008.244
2017-02-26T02:11:23.752Z,1008.250
2017-02-26T02:14:22.596Z,1008.212
2017-02-26T02:17:28.798Z,1008.241
2017-02-26T02:20:32.513Z,1008.178
2017-02-26T02:23:37.796Z,1008.169
2017-02-26T02:26:40.157Z,1008.133
2017-02-26T02:29:43.888Z,1008.070
2017-02-26T02:32:56.508Z,1008.052
2017-02-26T02:36:04.994Z,1008.016
2017-02-26T02:42:13.998Z,1007.907
2017-02-26T02:45:18.063Z,1007.895
2017-02-26T02:48:22.025Z,1007.921
2017-02-26T02:51:25.626Z,1007.911
2017-02-26T02:54:31.014Z,1007.858
2017-02-26T02:57:35.274Z,1007.901
2017-02-26T03:00:39.416Z,1007.885
2017-02-26T03:03:43.433Z,1007.894
2017-02-26T03:09:52.615Z,1007.849
2017-02-26T03:12:57.857Z,1007.835
2017-02-26T03:16:03.245Z,1007.823
2017-02-26T03:19:06.651Z,1007.805
2017-02-26T03:22:00.755Z,1007.846
2017-02-26T03:25:11.674Z,1007.669
2017-02-26T03:28:16.668Z,1007.616
2017-02-26T03:34:30.115Z,1007.593
2017-02-26T03:40:35.551Z,1007.519
2017-02-26T03:43:40.145Z,1007.512
2017-02-26T03:46:45.656Z,1007.504
2017-02-26T03:49:45.712Z,1007.488
2017-02-26T03:52:57.511Z,1007.443
2017-02-26T03:56:07.136Z,1007.440
2017-02-26T03:59:11.153Z,1007.379
2017-02-26T04:02:15.423Z,1007.401
2017-02-26T04:05:19.135Z,1007.343
2017-02-26T04:08:23.353Z,1007.339
2017-02-26T04:14:33.058Z,1007.327
2017-02-26T04:17:37.072Z,1007.283
2017-02-26T04:20:41.264Z,1007.323
2017-02-26T04:23:45.765Z,1007.277
2017-02-26T04:26:50.360Z,1007.309
2017-02-26T04:29:54.496Z,1007.248
2017-02-26T04:32:58.727Z,1007.244
2017-02-26T04:35:57.345Z,1007.220
2017-02-26T04:39:01.566Z,1007.233
2017-02-26T04:42:03.518Z,1007.192
2017-02-26T04:48:17.671Z,1007.085
2017-02-26T04:54:28.336Z,1007.096
2017-02-26T04:57:34.234Z,1007.068
2017-02-26T05:00:39.373Z,1006.990
2017-02-26T05:03:37.767Z,1006.990
2017-02-26T05:06:43.452Z,1006.979
2017-02-26T05:09:55.575Z,1006.954
2017-02-26T05:12:59.013Z,1006.986
2017-02-26T05:19:09.623Z,1007.028
2017-02-26T05:25:23.468Z,1007.055
2017-02-26T05:28:24.981Z,1007.038
2017-02-26T05:31:29.964Z,1007.067
2017-02-26T05:34:34.884Z,1007.043
2017-02-26T05:37:39.983Z,1007.006
2017-02-26T05:40:47.825Z,1007.016
2017-02-26T05:43:44.117Z,1007.016
2017-02-26T05:46:49.990Z,1007.023
2017-02-26T05:50:00.624Z,1006.974
2017-02-26T05:53:05.671Z,1006.993
2017-02-26T05:56:07.826Z,1006.939
2017-02-26T05:59:18.034Z,1006.947
2017-02-26T06:05:26.787Z,1006.892
2017-02-26T06:08:31.746Z,1006.905
2017-02-26T06:11:37.235Z,1006.887
2017-02-26T06:14:41.046Z,1006.935
2017-02-26T06:20:52.933Z,1006.848
2017-02-26T06:23:56.404Z,1006.879
2017-02-26T06:27:01.831Z,1006.957
2017-02-26T06:30:06.718Z,1006.953
2017-02-26T06:33:14.916Z,1006.851
2017-02-26T06:36:15.064Z,1006.945
2017-02-26T06:39:19.236Z,1006.887
2017-02-26T06:42:23.918Z,1006.905
2017-02-26T06:48:32.725Z,1006.907
2017-02-26T06:51:34.100Z,1006.911
2017-02-26T06:54:39.506Z,1006.959
2017-02-26T06:57:44.481Z,1006.999
2017-02-26T07:00:49.639Z,1006.947
2017-02-26T07:03:49.461Z,1006.909
2017-02-26T07:07:00.227Z,1006.975
2017-02-26T07:10:05.100Z,1006.959
2017-02-26T07:13:10.413Z,1007.043
2017-02-26T07:16:15.247Z,1007.045
2017-02-26T07:19:19.795Z,1007.050
2017-02-26T07:22:19.592Z,1007.124
2017-02-26T07:28:36.226Z,1007.096
2017-02-26T07:31:41.744Z,1007.108
2017-02-26T07:34:41.778Z,1007.173
2017-02-26T08:08:27.029Z,1007.236
2017-02-26T08:14:38.469Z,1007.253
2017-02-26T08:20:46.719Z,1007.252
2017-02-26T08:23:51.113Z,1007.246
2017-02-26T08:29:54.041Z,1007.296
2017-02-26T08:33:01.966Z,1007.298
2017-02-26T08:42:13.302Z,1007.319
2017-02-26T08:45:18.972Z,1007.311
2017-02-26T08:48:22.457Z,1007.278
2017-02-26T08:51:22.534Z,1007.256
2017-02-26T08:54:33.438Z,1007.266
2017-02-26T08:57:38.677Z,1007.241
2017-02-26T09:00:43.984Z,1007.280
2017-02-26T09:03:49.839Z,1007.347
2017-02-26T09:06:49.706Z,1007.289
2017-02-26T09:10:01.314Z,1007.210
2017-02-26T09:13:00.090Z,1007.183
2017-02-26T09:16:10.869Z,1007.177
2017-02-26T09:19:16.160Z,1007.208
2017-02-26T09:22:27.225Z,1007.221
2017-02-26T09:25:32.054Z,1007.270
2017-02-26T09:28:36.480Z,1007.296
2017-02-26T09:31:40.919Z,1007.332
2017-02-26T09:34:45.144Z,1007.339
2017-02-26T09:37:49.305Z,1007.343
2017-02-26T09:43:59.217Z,1007.375
2017-02-26T09:47:03.622Z,1007.288
2017-02-26T09:50:03.637Z,1007.286
2017-02-26T09:53:08.441Z,1007.272
2017-02-26T09:56:18.384Z,1007.350
2017-02-26T10:02:27.512Z,1007.309
2017-02-26T10:08:37.505Z,1007.313
2017-02-26T10:11:42.045Z,1007.293
2017-02-26T10:20:55.147Z,1007.347
2017-02-26T10:23:53.976Z,1007.326
2017-02-26T10:33:13.333Z,1007.252
2017-02-26T10:36:17.749Z,1007.214
2017-02-26T10:39:17.302Z,1007.233
2017-02-26T10:42:22.773Z,1007.255
2017-02-26T10:45:28.236Z,1007.156
2017-02-26T10:48:33.296Z,1007.119
2017-02-26T10:51:38.619Z,1007.164
2017-02-26T10:54:44.115Z,1007.125
2017-02-26T11:00:54.936Z,1007.116
2017-02-26T11:04:00.291Z,1007.158
2017-02-26T11:07:06.031Z,1007.123
2017-02-26T11:10:16.254Z,1007.075
2017-02-26T11:13:14.985Z,1007.072
2017-02-26T11:16:26.361Z,1006.975
2017-02-26T11:19:30.504Z,1006.993
2017-02-26T11:22:34.500Z,1006.993
2017-02-26T11:28:41.909Z,1007.114
2017-02-26T11:31:45.893Z,1007.090
2017-02-26T11:34:50.474Z,1007.084
2017-02-26T11:37:55.442Z,1007.067
2017-02-26T11:40:59.820Z,1006.995
2017-02-26T11:44:03.643Z,1007.010
2017-02-26T11:47:08.058Z,1007.056
2017-02-26T11:50:12.045Z,1006.988
2017-02-26T11:53:16.272Z,1006.964
2017-02-26T11:56:20.206Z,1006.861
2017-02-26T11:59:23.910Z,1006.841
2017-02-26T12:02:27.875Z,1006.799
2017-02-26T12:05:32.334Z,1006.745
2017-02-26T12:11:42.117Z,1006.796
2017-02-26T12:14:46.601Z,1006.763
2017-02-26T12:17:51.261Z,1006.750
2017-02-26T12:20:55.595Z,1006.716
2017-02-26T12:24:00.862Z,1006.793
2017-02-26T12:27:04.997Z,1006.845
2017-02-26T12:30:09.696Z,1006.884
2017-02-26T12:36:18.771Z,1006.870
2017-02-26T12:39:23.060Z,1006.850
2017-02-26T12:42:27.916Z,1006.757
2017-02-26T12:45:25.695Z,1006.747
2017-02-26T12:48:36.764Z,1006.716
2017-02-26T12:54:45.768Z,1006.895
2017-02-26T12:57:50.413Z,1006.877
2017-02-26T13:00:54.561Z,1006.867
2017-02-26T13:03:58.953Z,1006.977
2017-02-26T13:07:03.473Z,1006.953
2017-02-26T13:10:08.825Z,1006.928
2017-02-26T13:13:14.480Z,1006.993
2017-02-26T13:16:18.858Z,1007.008
2017-02-26T13:19:23.543Z,1007.003
2017-02-26T13:22:27.764Z,1007.116
2017-02-26T13:25:33.242Z,1007.083
2017-02-26T13:28:37.782Z,1007.007
2017-02-26T13:31:43.115Z,1007.010
2017-02-26T13:34:47.345Z,1007.048
2017-02-26T13:37:45.570Z,1007.102
2017-02-26T13:40:56.704Z,1007.037
2017-02-26T13:44:01.357Z,1007.025
2017-02-26T13:47:05.794Z,1007.029
2017-02-26T13:50:11.315Z,1007.037
2017-02-26T13:53:15.328Z,1007.037
2017-02-26T13:56:20.478Z,1007.007
2017-02-26T13:59:24.191Z,1007.135
2017-02-26T14:02:29.246Z,1007.138
2017-02-26T14:05:33.303Z,1007.007
2017-02-26T14:08:37.908Z,1007.029
2017-02-26T14:11:42.153Z,1006.980
2017-02-26T14:17:52.107Z,1006.985
2017-02-26T14:24:00.966Z,1007.015
2017-02-26T14:27:04.973Z,1006.991
2017-02-26T14:30:08.806Z,1007.002
2017-02-26T14:36:17.455Z,1007.003
2017-02-26T14:39:22.135Z,1006.990
2017-02-26T14:42:27.499Z,1006.963
2017-02-26T14:45:31.755Z,1006.987
2017-02-26T14:48:35.808Z,1006.990
2017-02-26T14:51:40.704Z,1007.082
2017-02-26T14:54:43.527Z,1007.099
2017-02-26T14:57:48.380Z,1007.103
2017-02-26T15:00:53.953Z,1007.029
2017-02-26T15:03:52.313Z,1007.048
2017-02-26T15:06:57.243Z,1007.042
2017-02-26T15:10:02.225Z,1007.031
2017-02-26T15:13:13.540Z,1007.045
2017-02-26T15:16:17.384Z,1007.088
2017-02-26T15:19:21.947Z,1006.997
2017-02-26T15:22:25.842Z,1007.056
2017-02-26T15:25:30.393Z,1007.075
2017-02-26T15:28:28.904Z,1007.112
2017-02-26T15:31:33.794Z,1007.146
2017-02-26T15:34:45.003Z,1007.111
2017-02-26T15:37:43.474Z,1007.089
2017-02-26T15:40:54.540Z,1007.079
2017-02-26T15:43:59.942Z,1007.119
2017-02-26T15:46:58.301Z,1007.070
2017-02-26T15:50:03.661Z,1007.073
2017-02-26T15:56:15.526Z,1007.140
2017-02-26T15:59:20.735Z,1007.169
2017-02-26T16:02:25.750Z,1007.207
2017-02-26T16:05:30.498Z,1007.198
2017-02-26T16:08:41.671Z,1007.245
2017-02-26T16:11:46.238Z,1007.254
2017-02-26T16:14:45.747Z,1007.252
2017-02-26T16:21:02.444Z,1007.329
2017-02-26T16:24:06.561Z,1007.332
2017-02-26T16:33:13.686Z,1007.318
2017-02-26T16:36:23.868Z,1007.317
2017-02-26T16:39:28.578Z,1007.379
2017-02-26T16:42:32.925Z,1007.376
2017-02-26T16:45:31.230Z,1007.344
2017-02-26T16:48:42.178Z,1007.363
2017-02-26T16:51:40.448Z,1007.445
2017-02-26T16:54:51.435Z,1007.522
2017-02-26T17:00:55.270Z,1007.605
2017-02-26T17:04:06.633Z,1007.625
2017-02-26T17:07:11.951Z,1007.618
2017-02-26T17:13:22.534Z,1007.644
2017-02-26T17:25:38.004Z,1007.757
2017-02-26T17:28:42.556Z,1007.732
2017-02-26T17:34:49.659Z,1007.961
2017-02-26T17:37:54.116Z,1008.016
2017-02-26T17:50:09.244Z,1007.987
2017-02-26T17:59:22.934Z,1007.970
2017-02-26T18:02:26.157Z,1007.935
2017-02-26T18:05:31.490Z,1007.967
2017-02-26T18:08:36.318Z,1007.945
2017-02-26T18:11:40.644Z,1008.007
2017-02-26T18:14:44.952Z,1008.034
2017-02-26T18:17:44.305Z,1008.017
2017-02-26T18:20:49.596Z,1008.052
2017-02-26T18:24:00.325Z,1008.083
2017-02-26T18:27:04.552Z,1008.055
2017-02-26T18:30:08.961Z,1008.063
2017-02-26T18:33:13.218Z,1008.070
2017-02-26T18:36:17.181Z,1008.106
2017-02-26T18:39:21.620Z,1008.138
2017-02-26T18:42:26.123Z,1008.069
2017-02-26T18:48:34.249Z,1008.142
2017-02-26T18:51:32.451Z,1008.143
2017-02-26T18:54:31.912Z,1008.239
2017-02-26T18:57:36.842Z,1008.265
2017-02-26T19:00:47.726Z,1008.264
2017-02-26T19:03:53.169Z,1008.323
2017-02-26T19:06:59.053Z,1008.259
2017-02-26T19:10:05.050Z,1008.305
2017-02-26T19:13:09.532Z,1008.320
2017-02-26T19:16:19.886Z,1008.279
2017-02-26T19:22:30.089Z,1008.284
2017-02-26T19:25:33.545Z,1008.255
2017-02-26T19:28:37.451Z,1008.267
2017-02-26T19:31:41.138Z,1008.244
2017-02-26T19:34:45.216Z,1008.189
2017-02-26T19:40:53.713Z,1008.242
2017-02-26T19:43:58.262Z,1008.284
2017-02-26T19:47:02.215Z,1008.271
2017-02-26T19:50:05.791Z,1008.216
2017-02-26T19:56:14.172Z,1008.150
2017-02-26T20:02:22.493Z,1008.146
2017-02-26T20:05:26.642Z,1008.117
2017-02-26T20:08:30.619Z,1008.066
2017-02-26T20:11:34.749Z,1008.014
2017-02-26T20:14:39.758Z,1007.993
2017-02-26T20:17:43.100Z,1007.945
2017-02-26T20:20:47.297Z,1007.959
2017-02-26T20:23:45.441Z,1007.907
2017-02-26T20:30:00.762Z,1007.957
2017-02-26T20:33:05.013Z,1008.021
2017-02-26T20:36:09.213Z,1008.038
2017-02-26T20:45:22.218Z,1007.988
2017-02-26T20:48:26.482Z,1007.975
2017-02-26T20:51:30.932Z,1007.956
2017-02-26T20:54:35.460Z,1008.021
2017-02-26T20:57:39.763Z,1008.026
2017-02-26T21:00:44.147Z,1008.013
2017-02-26T21:03:48.036Z,1007.962
2017-02-26T21:06:52.284Z,1007.946
2017-02-26T21:09:55.838Z,1007.900
2017-02-26T21:13:00.139Z,1007.911
2017-02-26T21:19:10.151Z,1007.885
2017-02-26T21:22:14.424Z,1007.848
2017-02-26T21:25:19.411Z,1007.862
2017-02-26T21:28:23.234Z,1007.841
2017-02-26T21:31:27.272Z,1007.892
2017-02-26T21:34:31.888Z,1007.913
2017-02-26T21:37:36.337Z,1007.953
2017-02-26T21:40:40.508Z,1007.937
2017-02-26T21:43:46.206Z,1007.900
2017-02-26T21:46:50.348Z,1007.832
2017-02-26T21:49:55.447Z,1007.814
2017-02-26T21:52:59.083Z,1007.791
2017-02-26T21:56:04.344Z,1007.804
2017-02-26T21:59:08.775Z,1007.794
2017-02-26T22:02:13.902Z,1007.857
2017-02-26T22:05:19.191Z,1007.871
2017-02-26T22:08:23.741Z,1007.784
2017-02-26T22:11:28.339Z,1007.790
2017-02-26T22:17:38.194Z,1007.776
2017-02-26T22:20:42.690Z,1007.782
2017-02-26T22:23:47.111Z,1007.815
2017-02-26T22:29:55.999Z,1007.818
2017-02-26T22:33:00.438Z,1007.821
2017-02-26T22:35:59.484Z,1007.763
2017-02-26T22:39:03.943Z,1007.728
2017-02-26T22:42:04.177Z,1007.721
2017-02-26T22:48:21.361Z,1007.539
2017-02-26T22:51:25.836Z,1007.561
2017-02-26T22:54:31.342Z,1007.564
2017-02-26T22:57:36.613Z,1007.597
2017-02-26T23:00:42.669Z,1007.602
2017-02-26T23:03:47.569Z,1007.620
2017-02-26T23:06:52.273Z,1007.597
2017-02-26T23:09:57.848Z,1007.556
2017-02-26T23:16:14.936Z,1007.579
2017-02-26T23:19:18.998Z,1007.514
2017-02-26T23:22:23.396Z,1007.490
2017-02-26T23:25:27.843Z,1007.461
2017-02-26T23:28:32.117Z,1007.457
2017-02-26T23:31:36.381Z,1007.444
2017-02-26T23:34:40.660Z,1007.431
2017-02-26T23:37:46.176Z,1007.426
2017-02-26T23:40:49.792Z,1007.402
2017-02-26T23:43:53.796Z,1007.445
2017-02-26T23:46:58.056Z,1007.462
2017-02-26T23:53:06.612Z,1007.483
2017-02-26T23:56:11.248Z,1007.475
2017-02-26T23:59:16.516Z,1007.487
